createdAt,value
2023-05-10T00:02:19.441Z,0.30
2023-05-10T00:04:49.464Z,0.30
2023-05-10T00:07:20.503Z,0.30
2023-05-10T00:09:50.610Z,0.30
2023-05-10T00:12:21.745Z,0.30
2023-05-10T00:14:52.661Z,0.40
2023-05-10T00:17:25.906Z,0.30
2023-05-10T00:19:56.178Z,0.30
2023-05-10T00:22:28.117Z,0.30
2023-05-10T00:24:58.187Z,0.30
2023-05-10T00:27:29.688Z,0.30
2023-05-10T00:30:02.141Z,0.30
2023-05-10T00:32:38.344Z,0.30
2023-05-10T00:35:09.453Z,0.30
2023-05-10T00:37:39.434Z,0.30
2023-05-10T00:40:11.569Z,0.30
2023-05-10T00:42:43.417Z,0.30
2023-05-10T00:45:14.002Z,0.30
2023-05-10T00:47:47.513Z,0.30
2023-05-10T00:50:19.370Z,0.30
2023-05-10T00:52:49.374Z,0.30
2023-05-10T00:55:19.794Z,0.30
2023-05-10T00:57:50.968Z,0.30
2023-05-10T01:00:25.179Z,0.30
2023-05-10T01:02:58.427Z,0.30
2023-05-10T01:05:28.995Z,0.30
2023-05-10T01:08:01.734Z,0.30
2023-05-10T01:10:34.878Z,0.30
2023-05-10T01:13:08.045Z,0.40
2023-05-10T01:15:38.751Z,0.30
2023-05-10T01:18:13.899Z,0.30
2023-05-10T01:20:52.621Z,0.30
2023-05-10T01:23:51.225Z,0.30
2023-05-10T01:26:43.497Z,0.30
2023-05-10T01:29:31.797Z,0.30
2023-05-10T01:32:33.535Z,0.30
2023-05-10T01:35:06.979Z,0.30
2023-05-10T01:37:46.463Z,0.30
2023-05-10T01:40:27.781Z,0.30
2023-05-10T01:43:04.072Z,0.30
2023-05-10T01:45:41.392Z,0.20
2023-05-10T01:48:15.645Z,0.30
2023-05-10T01:50:49.555Z,0.30
2023-05-10T01:53:24.393Z,0.30
2023-05-10T01:55:57.860Z,0.30
2023-05-10T01:58:32.236Z,0.30
2023-05-10T02:01:05.788Z,0.30
2023-05-10T02:03:41.143Z,0.30
2023-05-10T02:06:13.248Z,0.30
2023-05-10T02:08:46.766Z,0.30
2023-05-10T02:11:18.113Z,0.30
2023-05-10T02:13:54.519Z,0.30
2023-05-10T02:16:42.485Z,0.30
2023-05-10T02:19:18.236Z,0.30
2023-05-10T02:21:57.105Z,0.30
2023-05-10T02:24:44.555Z,0.30
2023-05-10T02:27:34.387Z,0.40
2023-05-10T02:30:06.748Z,0.40
2023-05-10T02:32:55.123Z,0.30
2023-05-10T02:35:46.596Z,0.30
2023-05-10T02:38:21.199Z,0.40
2023-05-10T02:40:57.803Z,0.30
2023-05-10T02:43:35.012Z,0.30
2023-05-10T02:46:12.940Z,0.40
2023-05-10T02:48:46.675Z,0.40
2023-05-10T02:51:29.840Z,0.30
2023-05-10T02:54:22.691Z,0.35
2023-05-10T02:57:04.592Z,0.30
2023-05-10T02:59:46.115Z,0.40
2023-05-10T03:02:30.849Z,0.40
2023-05-10T03:05:21.389Z,0.30
2023-05-10T03:08:07.895Z,0.30
2023-05-10T03:11:12.932Z,0.30
2023-05-10T03:14:36.316Z,0.30
2023-05-10T03:20:26.226Z,0.40
2023-05-10T03:23:19.592Z,0.30
2023-05-10T03:25:52.557Z,0.30
2023-05-10T03:28:25.241Z,0.35
2023-05-10T03:30:57.152Z,0.30
2023-05-10T03:33:29.728Z,0.30
2023-05-10T03:36:03.399Z,0.40
2023-05-10T03:38:39.336Z,0.30
2023-05-10T03:41:09.854Z,0.30
2023-05-10T03:43:42.260Z,0.30
2023-05-10T03:46:12.673Z,0.40
2023-05-10T03:48:42.971Z,0.40
2023-05-10T03:51:16.912Z,0.30
2023-05-10T03:53:54.290Z,0.30
2023-05-10T03:56:25.157Z,0.30
2023-05-10T03:58:55.450Z,0.30
2023-05-10T04:01:25.422Z,0.32
2023-05-10T04:03:55.855Z,0.40
2023-05-10T04:06:27.874Z,0.30
2023-05-10T04:09:05.324Z,0.40
2023-05-10T04:11:35.364Z,0.38
2023-05-10T04:14:05.080Z,0.30
2023-05-10T04:16:36.874Z,0.30
2023-05-10T04:19:07.246Z,0.38
2023-05-10T04:21:37.327Z,0.30
2023-05-10T04:24:13.446Z,0.30
2023-05-10T04:26:43.630Z,0.40
2023-05-10T04:29:15.316Z,0.30
2023-05-10T04:31:48.193Z,0.38
2023-05-10T04:34:18.247Z,0.30
2023-05-10T04:36:48.237Z,0.30
2023-05-10T04:39:20.685Z,0.40
2023-05-10T04:41:50.836Z,0.40
2023-05-10T04:44:20.958Z,0.40
2023-05-10T04:46:52.339Z,0.40
2023-05-10T04:49:22.950Z,0.30
2023-05-10T04:51:55.132Z,0.40
2023-05-10T04:54:31.626Z,0.30
2023-05-10T04:57:01.742Z,0.40
2023-05-10T04:59:31.827Z,0.30
2023-05-10T05:02:03.034Z,0.30
2023-05-10T05:04:34.215Z,0.40
2023-05-10T05:07:04.786Z,0.30
2023-05-10T05:09:40.177Z,0.40
2023-05-10T05:12:15.314Z,0.40
2023-05-10T05:14:46.016Z,0.30
2023-05-10T05:17:16.995Z,0.30
2023-05-10T05:19:47.092Z,0.30
2023-05-10T05:22:19.652Z,0.35
2023-05-10T05:24:52.761Z,0.30
2023-05-10T05:27:23.875Z,0.30
2023-05-10T05:29:56.682Z,0.30
2023-05-10T05:32:27.807Z,0.40
2023-05-10T05:35:04.727Z,0.30
2023-05-10T05:37:36.762Z,0.35
2023-05-10T05:40:10.786Z,0.30
2023-05-10T05:42:40.906Z,0.40
2023-05-10T05:45:17.073Z,0.40
2023-05-10T05:47:48.647Z,0.40
2023-05-10T05:50:18.675Z,0.30
2023-05-10T05:52:48.593Z,0.30
2023-05-10T05:55:21.325Z,0.30
2023-05-10T05:57:51.360Z,0.40
2023-05-10T06:00:22.560Z,0.30
2023-05-10T06:02:53.155Z,0.30
2023-05-10T06:05:25.362Z,0.38
2023-05-10T06:07:55.910Z,0.30
2023-05-10T06:10:29.186Z,0.40
2023-05-10T06:12:59.326Z,0.35
2023-05-10T06:15:31.106Z,0.40
2023-05-10T06:18:01.455Z,0.40
2023-05-10T06:20:33.179Z,0.40
2023-05-10T06:23:03.193Z,0.30
2023-05-10T06:25:35.931Z,0.30
2023-05-10T06:28:06.107Z,0.30
2023-05-10T06:30:36.166Z,0.30
2023-05-10T06:33:06.184Z,0.30
2023-05-10T06:35:36.645Z,0.25
2023-05-10T06:38:06.908Z,0.30
2023-05-10T06:40:40.147Z,0.40
2023-05-10T06:43:10.749Z,0.30
2023-05-10T06:45:40.673Z,0.30
2023-05-10T06:48:10.700Z,0.30
2023-05-10T06:50:40.928Z,0.30
2023-05-10T06:53:11.205Z,0.30
2023-05-10T06:55:43.957Z,0.30
2023-05-10T06:58:15.397Z,0.30
2023-05-10T07:00:46.961Z,0.40
2023-05-10T07:03:17.382Z,0.30
2023-05-10T07:05:47.648Z,0.30
2023-05-10T07:08:20.851Z,0.40
2023-05-10T07:10:53.618Z,0.30
2023-05-10T07:13:26.656Z,0.40
2023-05-10T07:15:56.619Z,0.40
2023-05-10T07:18:26.476Z,0.35
2023-05-10T07:20:57.462Z,0.30
2023-05-10T07:23:30.848Z,0.30
2023-05-10T07:26:03.762Z,0.30
2023-05-10T07:28:38.888Z,0.30
2023-05-10T07:31:09.104Z,0.30
2023-05-10T07:33:41.323Z,0.30
2023-05-10T07:36:16.970Z,0.30
2023-05-10T07:38:47.427Z,0.40
2023-05-10T07:41:20.313Z,0.40
2023-05-10T07:43:52.688Z,0.40
2023-05-10T07:46:24.077Z,0.30
2023-05-10T07:48:55.839Z,0.30
2023-05-10T07:51:28.919Z,0.30
2023-05-10T07:53:59.312Z,0.40
2023-05-10T07:56:33.485Z,0.40
2023-05-10T07:59:04.932Z,0.30
2023-05-10T08:01:37.069Z,0.30
2023-05-10T08:04:07.516Z,0.40
2023-05-10T08:06:37.698Z,0.40
2023-05-10T08:09:09.163Z,0.30
2023-05-10T08:11:41.745Z,0.30
2023-05-10T08:14:12.187Z,0.30
2023-05-10T08:16:42.678Z,0.40
2023-05-10T08:19:13.049Z,0.40
2023-05-10T08:21:45.940Z,0.35
2023-05-10T08:24:16.067Z,0.40
2023-05-10T08:26:48.877Z,0.30
2023-05-10T08:29:22.781Z,0.30
2023-05-10T08:31:53.088Z,0.40
2023-05-10T08:34:23.359Z,0.30
2023-05-10T08:36:56.186Z,0.30
2023-05-10T08:39:30.535Z,0.30
2023-05-10T08:42:08.505Z,0.30
2023-05-10T08:44:41.726Z,0.30
2023-05-10T08:47:17.966Z,0.35
2023-05-10T08:49:52.338Z,0.30
2023-05-10T08:52:25.141Z,0.30
2023-05-10T08:54:55.537Z,0.30
2023-05-10T08:57:29.048Z,0.30
2023-05-10T08:59:59.387Z,0.30
2023-05-10T09:02:29.660Z,0.30
2023-05-10T09:05:01.698Z,0.30
2023-05-10T09:07:33.776Z,0.30
2023-05-10T09:10:07.036Z,0.35
2023-05-10T09:12:43.090Z,0.40
2023-05-10T09:15:16.427Z,0.30
2023-05-10T09:17:56.986Z,0.30
2023-05-10T09:20:30.628Z,0.30
2023-05-10T09:23:02.306Z,0.40
2023-05-10T09:25:34.594Z,0.30
2023-05-10T09:28:10.905Z,0.40
2023-05-10T09:30:41.725Z,0.30
2023-05-10T09:33:11.878Z,0.30
2023-05-10T09:35:44.136Z,0.30
2023-05-10T09:38:14.888Z,0.30
2023-05-10T09:40:58.070Z,0.30
2023-05-10T09:43:32.597Z,0.30
2023-05-10T09:46:03.799Z,0.40
2023-05-10T09:48:34.579Z,0.30
2023-05-10T09:51:05.148Z,0.30
2023-05-10T09:53:35.646Z,0.30
2023-05-10T09:56:06.438Z,0.30
2023-05-10T09:58:42.535Z,0.30
2023-05-10T10:01:16.117Z,0.30
2023-05-10T10:03:48.282Z,0.30
2023-05-10T10:06:30.159Z,0.30
2023-05-10T10:09:01.313Z,0.30
2023-05-10T10:11:34.212Z,0.30
2023-05-10T10:14:12.564Z,0.30
2023-05-10T10:16:55.458Z,0.30
2023-05-10T10:19:37.798Z,0.30
2023-05-10T10:22:12.124Z,0.30
2023-05-10T10:24:44.659Z,0.30
2023-05-10T10:27:27.993Z,0.30
2023-05-10T10:30:17.726Z,0.30
2023-05-10T10:33:27.860Z,0.30
2023-05-10T10:36:03.226Z,0.30
2023-05-10T10:38:44.494Z,0.30
2023-05-10T10:41:31.228Z,0.30
2023-05-10T10:44:32.553Z,0.30
2023-05-10T10:47:30.327Z,0.30
2023-05-10T10:50:09.622Z,0.30
2023-05-10T10:52:44.834Z,0.30
2023-05-10T10:55:19.956Z,0.30
2023-05-10T10:57:53.039Z,0.30
2023-05-10T11:00:25.880Z,0.30
2023-05-10T11:03:06.217Z,0.30
2023-05-10T11:05:42.934Z,0.32
2023-05-10T11:08:23.145Z,0.35
2023-05-10T11:10:56.034Z,0.30
2023-05-10T11:13:37.886Z,0.30
2023-05-10T11:16:20.059Z,0.30
2023-05-10T11:19:02.916Z,0.30
2023-05-10T11:21:34.351Z,0.22
2023-05-10T11:24:07.360Z,0.30
2023-05-10T11:26:39.702Z,0.30
2023-05-10T11:29:11.393Z,0.30
2023-05-10T11:31:46.820Z,0.30
2023-05-10T11:34:27.694Z,0.30
2023-05-10T11:36:59.017Z,0.30
2023-05-10T11:39:32.816Z,0.30
2023-05-10T11:42:04.688Z,0.30
2023-05-10T11:44:36.470Z,0.30
2023-05-10T11:47:07.714Z,0.30
2023-05-10T11:49:43.444Z,0.30
2023-05-10T11:52:15.359Z,0.30
2023-05-10T11:54:50.710Z,0.30
2023-05-10T11:57:22.838Z,0.30
2023-05-10T12:00:00.514Z,0.30
2023-05-10T12:02:31.070Z,0.30
2023-05-10T12:05:05.983Z,0.30
2023-05-10T12:07:37.831Z,0.30
2023-05-10T12:10:12.052Z,0.28
2023-05-10T12:12:43.263Z,0.22
2023-05-10T12:15:22.161Z,0.20
2023-05-10T12:17:53.859Z,0.28
2023-05-10T12:20:32.157Z,0.30
2023-05-10T12:23:06.935Z,0.20
2023-05-10T12:25:38.744Z,0.20
2023-05-10T12:28:10.488Z,0.20
2023-05-10T12:30:40.911Z,0.20
2023-05-10T12:33:18.090Z,0.20
2023-05-10T12:35:58.219Z,0.20
2023-05-10T12:38:36.902Z,0.30
2023-05-10T12:41:08.770Z,0.20
2023-05-10T12:43:40.620Z,0.20
2023-05-10T12:46:12.821Z,0.30
2023-05-10T12:48:46.632Z,0.20
2023-05-10T12:51:23.293Z,0.20
2023-05-10T12:53:58.912Z,0.20
2023-05-10T12:56:30.510Z,0.22
2023-05-10T12:59:05.799Z,0.20
2023-05-10T13:01:37.303Z,0.20
2023-05-10T13:04:16.008Z,0.22
2023-05-10T13:06:52.389Z,0.20
2023-05-10T13:09:24.667Z,0.20
2023-05-10T13:11:57.650Z,0.20
2023-05-10T13:14:29.822Z,0.20
2023-05-10T13:17:02.613Z,0.20
2023-05-10T13:19:35.502Z,0.10
2023-05-10T13:22:09.819Z,0.20
2023-05-10T13:24:41.497Z,0.20
2023-05-10T13:27:11.754Z,0.20
2023-05-10T13:29:43.699Z,0.20
2023-05-10T13:32:15.105Z,0.20
2023-05-10T13:34:45.295Z,0.20
2023-05-10T13:37:19.488Z,0.15
2023-05-10T13:39:50.301Z,0.20
2023-05-10T13:42:21.120Z,0.20
2023-05-10T13:44:51.442Z,0.20
2023-05-10T13:47:23.106Z,0.20
2023-05-10T13:49:54.186Z,0.20
2023-05-10T13:52:27.146Z,0.28
2023-05-10T13:54:59.379Z,0.20
2023-05-10T13:57:30.119Z,0.20
2023-05-10T14:00:03.054Z,0.20
2023-05-10T14:02:53.636Z,0.20
2023-05-10T14:05:26.544Z,0.20
2023-05-10T14:07:59.213Z,0.20
2023-05-10T14:10:29.207Z,0.20
2023-05-10T14:13:02.552Z,0.20
2023-05-10T14:15:32.845Z,0.20
2023-05-10T14:18:03.200Z,0.20
2023-05-10T14:20:35.081Z,0.20
2023-05-10T14:23:09.757Z,0.20
2023-05-10T14:25:42.092Z,0.30
2023-05-10T14:28:13.059Z,0.20
2023-05-10T14:30:45.518Z,0.20
2023-05-10T14:33:16.396Z,0.20
2023-05-10T14:35:47.162Z,0.20
2023-05-10T14:38:20.130Z,0.20
2023-05-10T14:40:51.536Z,0.20
2023-05-10T14:43:21.772Z,0.20
2023-05-10T14:45:51.763Z,0.20
2023-05-10T14:48:22.687Z,0.20
2023-05-10T14:50:54.291Z,0.20
2023-05-10T14:53:29.537Z,0.20
2023-05-10T14:56:01.461Z,0.20
2023-05-10T14:58:33.901Z,0.20
2023-05-10T15:01:04.349Z,0.20
2023-05-10T15:03:35.454Z,0.20
2023-05-10T15:06:13.963Z,0.20
2023-05-10T15:08:48.462Z,0.20
2023-05-10T15:11:23.894Z,0.20
2023-05-10T15:13:57.751Z,0.13
2023-05-10T15:16:36.664Z,0.20
2023-05-10T15:19:16.685Z,0.20
2023-05-10T15:21:55.633Z,0.20
2023-05-10T15:24:30.004Z,0.20
2023-05-10T15:27:08.104Z,0.20
2023-05-10T15:29:41.979Z,0.20
2023-05-10T15:32:18.836Z,0.20
2023-05-10T15:34:48.789Z,0.20
2023-05-10T15:37:24.509Z,0.20
2023-05-10T15:40:05.081Z,0.20
2023-05-10T15:42:38.763Z,0.20
2023-05-10T15:45:10.355Z,0.20
2023-05-10T15:47:41.086Z,0.17
2023-05-10T15:50:15.680Z,0.20
2023-05-10T15:52:46.164Z,0.20
2023-05-10T15:55:19.094Z,0.20
2023-05-10T15:57:52.190Z,0.20
2023-05-10T16:00:23.995Z,0.20
2023-05-10T16:02:56.459Z,0.20
2023-05-10T16:05:32.586Z,0.20
2023-05-10T16:08:08.120Z,0.20
2023-05-10T16:10:42.764Z,0.20
2023-05-10T16:13:15.988Z,0.20
2023-05-10T16:15:47.475Z,0.20
2023-05-10T16:18:21.825Z,0.20
2023-05-10T16:20:56.147Z,0.20
2023-05-10T16:23:34.003Z,0.20
2023-05-10T16:26:07.261Z,0.20
2023-05-10T16:28:38.027Z,0.20
2023-05-10T16:31:13.352Z,0.20
2023-05-10T16:33:43.953Z,0.20
2023-05-10T16:36:14.237Z,0.20
2023-05-10T16:38:48.666Z,0.30
2023-05-10T16:41:23.688Z,0.20
2023-05-10T16:43:55.053Z,0.20
2023-05-10T16:46:27.137Z,0.20
2023-05-10T16:49:02.120Z,0.20
2023-05-10T16:51:36.047Z,0.20
2023-05-10T16:54:13.803Z,0.20
2023-05-10T16:56:48.190Z,0.20
2023-05-10T16:59:18.294Z,0.20
2023-05-10T17:01:48.501Z,0.20
2023-05-10T17:04:20.234Z,0.20
2023-05-10T17:06:52.478Z,0.20
2023-05-10T17:09:24.580Z,0.20
2023-05-10T17:12:01.101Z,0.20
2023-05-10T17:14:32.741Z,0.20
2023-05-10T17:17:03.030Z,0.22
2023-05-10T17:19:33.846Z,0.20
2023-05-10T17:22:06.079Z,0.30
2023-05-10T17:24:36.322Z,0.20
2023-05-10T17:27:09.441Z,0.30
2023-05-10T17:29:39.948Z,0.25
2023-05-10T17:32:10.198Z,0.20
2023-05-10T17:34:43.027Z,0.30
2023-05-10T17:37:13.739Z,0.20
2023-05-10T17:39:45.796Z,0.30
2023-05-10T17:42:23.793Z,0.20
2023-05-10T17:44:56.045Z,0.20
2023-05-10T17:47:28.568Z,0.20
2023-05-10T17:50:02.696Z,0.30
2023-05-10T17:52:33.694Z,0.20
2023-05-10T17:55:04.423Z,0.30
2023-05-10T17:57:39.633Z,0.30
2023-05-10T18:00:11.805Z,0.20
2023-05-10T18:02:42.777Z,0.30
2023-05-10T18:05:14.121Z,0.20
2023-05-10T18:07:45.578Z,0.28
2023-05-10T18:10:16.175Z,0.25
2023-05-10T18:12:50.757Z,0.30
2023-05-10T18:15:21.548Z,0.30
2023-05-10T18:17:53.125Z,0.20
2023-05-10T18:20:23.906Z,0.30
2023-05-10T18:22:56.746Z,0.30
2023-05-10T18:25:28.780Z,0.30
2023-05-10T18:28:02.212Z,0.30
2023-05-10T18:30:32.448Z,0.30
2023-05-10T18:33:04.325Z,0.20
2023-05-10T18:35:37.883Z,0.30
2023-05-10T18:38:15.587Z,0.30
2023-05-10T18:40:47.945Z,0.30
2023-05-10T18:43:23.792Z,0.30
2023-05-10T18:45:54.761Z,0.30
2023-05-10T18:48:24.840Z,0.30
2023-05-10T18:50:54.634Z,0.30
2023-05-10T18:53:26.803Z,0.30
2023-05-10T18:56:02.121Z,0.30
2023-05-10T18:58:35.966Z,0.30
2023-05-10T19:01:06.246Z,0.20
2023-05-10T19:03:36.599Z,0.20
2023-05-10T19:06:06.805Z,0.30
2023-05-10T19:08:36.751Z,0.30
2023-05-10T19:11:07.153Z,0.30
2023-05-10T19:13:46.798Z,0.28
2023-05-10T19:16:24.876Z,0.30
2023-05-10T19:18:55.008Z,0.30
2023-05-10T19:21:27.031Z,0.30
2023-05-10T19:23:58.901Z,0.30
2023-05-10T19:26:34.623Z,0.30
2023-05-10T19:29:07.679Z,0.30
2023-05-10T19:31:40.980Z,0.30
2023-05-10T19:34:11.631Z,0.30
2023-05-10T19:36:43.995Z,0.30
2023-05-10T19:39:14.306Z,0.30
2023-05-10T19:41:44.508Z,0.30
2023-05-10T19:44:17.814Z,0.30
2023-05-10T19:46:49.185Z,0.30
2023-05-10T19:49:19.703Z,0.30
2023-05-10T19:51:50.323Z,0.30
2023-05-10T19:54:21.533Z,0.30
2023-05-10T19:56:51.810Z,0.30
2023-05-10T19:59:24.399Z,0.30
2023-05-10T20:01:54.961Z,0.30
2023-05-10T20:04:27.444Z,0.30
2023-05-10T20:06:58.520Z,0.30
2023-05-10T20:09:29.105Z,0.30
2023-05-10T20:12:00.000Z,0.30
2023-05-10T20:14:35.164Z,0.30
2023-05-10T20:17:05.492Z,0.30
2023-05-10T20:19:37.544Z,0.22
2023-05-10T20:22:09.632Z,0.30
2023-05-10T20:24:40.565Z,0.30
2023-05-10T20:27:11.495Z,0.30
2023-05-10T20:29:47.733Z,0.30
2023-05-10T20:32:18.336Z,0.30
2023-05-10T20:34:49.806Z,0.30
2023-05-10T20:37:20.299Z,0.30
2023-05-10T20:39:50.939Z,0.30
2023-05-10T20:42:21.915Z,0.30
2023-05-10T20:44:55.331Z,0.30
2023-05-10T20:47:26.318Z,0.30
2023-05-10T20:49:56.655Z,0.30
2023-05-10T20:52:27.645Z,0.30
2023-05-10T20:54:57.750Z,0.30
2023-05-10T20:57:35.268Z,0.30
2023-05-10T21:00:09.806Z,0.20
2023-05-10T21:02:40.252Z,0.30
2023-05-10T21:05:12.703Z,0.30
2023-05-10T21:07:43.750Z,0.30
2023-05-10T21:10:14.415Z,0.30
2023-05-10T21:12:46.724Z,0.30
2023-05-10T21:15:19.625Z,0.35
2023-05-10T21:17:49.622Z,0.30
2023-05-10T21:20:20.069Z,0.30
2023-05-10T21:22:51.298Z,0.30
2023-05-10T21:25:23.302Z,0.30
2023-05-10T21:27:53.863Z,0.30
2023-05-10T21:30:27.239Z,0.30
2023-05-10T21:33:00.218Z,0.30
2023-05-10T21:35:30.724Z,0.30
2023-05-10T21:38:03.804Z,0.30
2023-05-10T21:40:33.983Z,0.30
2023-05-10T21:43:03.995Z,0.20
2023-05-10T21:45:42.593Z,0.30
2023-05-10T21:48:19.051Z,0.30
2023-05-10T21:50:49.194Z,0.30
2023-05-10T21:53:19.542Z,0.28
2023-05-10T21:55:49.366Z,0.30
2023-05-10T21:58:19.325Z,0.30
2023-05-10T22:00:52.621Z,0.20
2023-05-10T22:03:22.792Z,0.30
2023-05-10T22:05:53.722Z,0.30
2023-05-10T22:08:45.822Z,0.30
2023-05-10T22:11:24.117Z,0.40
2023-05-10T22:13:54.641Z,0.30
2023-05-10T22:16:29.722Z,0.40
2023-05-10T22:19:02.377Z,0.30
2023-05-10T22:21:33.754Z,0.30
2023-05-10T22:24:06.235Z,0.30
2023-05-10T22:26:36.477Z,0.30
2023-05-10T22:29:08.351Z,0.30
2023-05-10T22:31:48.265Z,0.30
2023-05-10T22:34:19.619Z,0.30
2023-05-10T22:36:52.200Z,0.30
2023-05-10T22:39:25.088Z,0.30
2023-05-10T22:41:55.808Z,0.30
2023-05-10T22:44:26.660Z,0.30
2023-05-10T22:46:59.417Z,0.30
2023-05-10T22:49:31.968Z,0.40
2023-05-10T22:52:02.282Z,0.30
2023-05-10T22:54:36.148Z,0.30
2023-05-10T22:57:09.880Z,0.30
2023-05-10T22:59:41.237Z,0.30
2023-05-10T23:02:14.564Z,0.30
2023-05-10T23:04:45.122Z,0.30
2023-05-10T23:07:16.024Z,0.30
2023-05-10T23:09:46.261Z,0.30
2023-05-10T23:12:19.914Z,0.30
2023-05-10T23:14:50.893Z,0.30
2023-05-10T23:17:24.287Z,0.30
2023-05-10T23:19:54.368Z,0.30
2023-05-10T23:22:25.918Z,0.30
2023-05-10T23:24:56.094Z,0.30
2023-05-10T23:27:27.535Z,0.30
2023-05-10T23:29:58.953Z,0.30
2023-05-10T23:32:31.922Z,0.30
2023-05-10T23:35:03.450Z,0.30
2023-05-10T23:37:33.496Z,0.30
2023-05-10T23:40:03.875Z,0.30
2023-05-10T23:42:35.420Z,0.40
2023-05-10T23:45:05.301Z,0.30
2023-05-10T23:47:38.307Z,0.30
2023-05-10T23:50:09.792Z,0.30
2023-05-10T23:52:42.865Z,0.30
2023-05-10T23:55:14.292Z,0.30
2023-05-10T23:57:44.219Z,0.30
